Time;durP1;ratioP1;P1;durP2;ratioP2;P2;SDS_P1;SDS_P2;PMS_P1;PMS_P2;Temp;Humidity;BMP_temperature;BMP_pressure;BME280_temperature;BME280_humidity;BME280_pressure;Samples;Min_cycle;Max_cycle;Signal;HPM_P1;HPM_P2
2021/12/23 00:02:16;;;;;;;8.25;3.08;;;25.80;46.80;;;;;;5028597;28;20284;-60
2021/12/23 00:04:47;;;;;;;11.38;3.00;;;25.80;46.70;;;;;;5029761;28;20310;-59
2021/12/23 00:07:18;;;;;;;7.80;2.83;;;25.80;46.60;;;;;;5029050;28;20307;-59
2021/12/23 00:12:40;;;;;;;7.32;2.65;;;25.90;46.60;;;;;;5019148;28;20277;-56
2021/12/23 00:15:27;;;;;;;9.52;3.30;;;25.90;46.60;;;;;;5027054;28;20200;-58
2021/12/23 00:18:01;;;;;;;7.68;3.03;;;25.90;46.50;;;;;;5016644;28;20228;-58
2021/12/23 00:23:27;;;;;;;7.32;2.50;;;25.90;46.40;;;;;;5028084;28;20725;-60
2021/12/23 00:26:03;;;;;;;8.38;2.58;;;25.90;46.40;;;;;;5027139;28;20196;-59
2021/12/23 00:28:34;;;;;;;8.30;2.97;;;26.00;46.40;;;;;;5026019;28;20302;-57
2021/12/23 00:31:07;;;;;;;7.75;2.67;;;26.00;46.40;;;;;;5027427;28;20211;-59
2021/12/23 00:33:40;;;;;;;7.18;2.65;;;26.00;46.30;;;;;;5027750;28;20268;-60
2021/12/23 00:36:11;;;;;;;5.88;2.60;;;26.10;46.40;;;;;;5026843;28;20231;-56
2021/12/23 00:38:46;;;;;;;8.52;2.50;;;26.10;46.40;;;;;;5029227;28;20248;-60
2021/12/23 00:41:16;;;;;;;8.48;2.85;;;26.10;46.40;;;;;;5027607;28;20204;-46
2021/12/23 00:43:47;;;;;;;7.82;2.45;;;26.10;46.30;;;;;;5026022;28;20232;-59
2021/12/23 00:46:19;;;;;;;10.77;2.97;;;26.10;46.30;;;;;;5027464;28;20295;-60
2021/12/23 00:48:50;;;;;;;8.13;2.47;;;26.10;46.30;;;;;;5026701;28;20255;-50
2021/12/23 00:51:21;;;;;;;8.52;2.55;;;26.10;46.20;;;;;;5020057;28;20276;-47
2021/12/23 00:53:53;;;;;;;6.65;2.50;;;26.10;46.20;;;;;;5016618;28;20239;-48
2021/12/23 00:56:24;;;;;;;5.28;2.38;;;26.20;46.20;;;;;;5026250;28;20192;-53
2021/12/23 00:58:54;;;;;;;6.15;2.33;;;26.20;46.10;;;;;;5026088;28;20336;-49
2021/12/23 01:01:27;;;;;;;7.45;2.75;;;26.20;46.10;;;;;;5028714;28;20231;-41
2021/12/23 01:03:57;;;;;;;9.60;3.00;;;26.20;46.10;;;;;;5027971;28;20287;-55
2021/12/23 01:06:34;;;;;;;8.10;2.40;;;26.20;46.10;;;;;;5027620;28;20670;-47
2021/12/23 01:09:05;;;;;;;9.25;2.63;;;26.20;46.70;;;;;;5012340;28;20239;-42
2021/12/23 01:11:35;;;;;;;7.53;2.58;;;26.20;46.10;;;;;;5014943;28;20284;-49
2021/12/23 01:14:26;;;;;;;4.85;2.15;;;26.30;46.10;;;;;;5012711;28;20284;-50
2021/12/23 01:17:29;;;;;;;5.82;2.22;;;26.30;46.10;;;;;;5017693;28;20248;-54
2021/12/23 01:20:01;;;;;;;9.80;2.53;;;26.30;46.10;;;;;;5012401;28;20204;-52
2021/12/23 01:22:32;;;;;;;6.20;2.20;;;26.30;46.00;;;;;;5018258;28;20196;-51
2021/12/23 01:25:02;;;;;;;6.45;2.50;;;26.30;46.00;;;;;;5025125;28;20283;-50
2021/12/23 01:27:32;;;;;;;8.23;2.78;;;26.40;46.10;;;;;;5026328;28;20244;-50
2021/12/23 01:30:04;;;;;;;8.52;2.83;;;26.40;46.00;;;;;;5025867;28;20275;-48
2021/12/23 01:32:36;;;;;;;6.45;2.53;;;26.40;46.00;;;;;;5012463;28;20832;-52
2021/12/23 01:35:07;;;;;;;9.43;2.75;;;26.40;45.90;;;;;;5030899;28;20199;-50
2021/12/23 01:37:38;;;;;;;9.88;2.78;;;26.40;46.00;;;;;;5028544;28;20319;-50
2021/12/23 01:40:11;;;;;;;8.90;2.33;;;26.40;46.00;;;;;;5030196;28;20283;-53
2021/12/23 01:42:41;;;;;;;7.88;2.63;;;26.40;45.90;;;;;;5029365;28;20726;-55
2021/12/23 01:45:14;;;;;;;8.05;2.50;;;26.40;45.90;;;;;;5028991;28;20283;-51
2021/12/23 01:47:46;;;;;;;9.23;2.47;;;26.40;45.90;;;;;;5023036;28;20303;-45
2021/12/23 01:50:19;;;;;;;9.75;2.53;;;26.40;45.80;;;;;;5019022;28;20193;-51
2021/12/23 01:52:49;;;;;;;9.50;2.65;;;26.40;45.80;;;;;;5028936;28;20311;-51
2021/12/23 01:55:20;;;;;;;6.50;2.33;;;26.40;45.80;;;;;;5031336;28;20283;-52
2021/12/23 01:57:52;;;;;;;7.15;2.38;;;26.40;45.80;;;;;;5031101;28;20252;-55
2021/12/23 02:00:25;;;;;;;7.03;2.45;;;26.40;45.80;;;;;;5030129;28;20810;-52
2021/12/23 02:02:59;;;;;;;8.85;2.58;;;26.50;45.90;;;;;;5029092;28;20299;-55
2021/12/23 02:05:30;;;;;;;8.20;2.90;;;26.50;45.80;;;;;;5020422;28;20295;-51
2021/12/23 02:08:01;;;;;;;6.45;2.20;;;26.50;45.80;;;;;;5024714;28;20260;-49
2021/12/23 02:10:32;;;;;;;6.80;2.42;;;26.50;45.80;;;;;;5029212;28;20283;-47
2021/12/23 02:13:03;;;;;;;8.70;2.60;;;26.50;45.80;;;;;;5027708;28;20315;-39
2021/12/23 02:15:34;;;;;;;10.15;2.58;;;26.50;45.80;;;;;;5032541;28;20295;-55
2021/12/23 02:18:06;;;;;;;7.30;2.55;;;26.50;45.70;;;;;;5031347;28;20236;-56
2021/12/23 02:20:39;;;;;;;8.05;2.22;;;26.50;45.70;;;;;;5036142;28;20285;-42
2021/12/23 02:23:11;;;;;;;8.00;3.00;;;26.50;45.70;;;;;;5030509;28;20228;-39
2021/12/23 02:25:42;;;;;;;8.63;2.65;;;26.50;45.70;;;;;;5030200;28;20200;-39
2021/12/23 02:28:16;;;;;;;7.20;2.17;;;26.50;45.60;;;;;;5040064;28;20302;-40
2021/12/23 02:30:51;;;;;;;7.20;2.38;;;26.50;45.70;;;;;;5035776;28;21399;-39
2021/12/23 02:33:23;;;;;;;9.30;2.85;;;26.50;45.70;;;;;;5033085;28;20216;-41
2021/12/23 02:35:56;;;;;;;9.23;2.75;;;26.50;45.70;;;;;;5044320;28;20723;-50
2021/12/23 02:38:27;;;;;;;10.30;2.60;;;26.50;45.70;;;;;;5043640;28;20219;-39
2021/12/23 02:40:58;;;;;;;10.23;2.90;;;26.50;45.70;;;;;;5035847;28;20296;-41
2021/12/23 02:43:29;;;;;;;7.95;2.58;;;26.60;45.70;;;;;;5030821;28;20675;-39
2021/12/23 02:46:01;;;;;;;6.38;2.35;;;26.60;45.80;;;;;;5028976;28;20560;-39
2021/12/23 02:48:34;;;;;;;8.00;2.63;;;26.50;45.70;;;;;;5030150;28;20216;-43
2021/12/23 02:51:08;;;;;;;29.73;5.32;;;26.50;45.80;;;;;;5033022;28;20200;-47
2021/12/23 02:53:40;;;;;;;26.00;3.92;;;26.50;46.10;;;;;;5030968;28;20322;-39
2021/12/23 02:56:14;;;;;;;11.57;3.70;;;26.60;46.30;;;;;;5031356;28;20725;-42
2021/12/23 02:58:46;;;;;;;12.55;3.65;;;26.60;46.10;;;;;;5030840;28;20761;-39
2021/12/23 03:01:18;;;;;;;20.95;4.07;;;26.60;46.30;;;;;;5030735;28;20200;-42
2021/12/23 03:03:49;;;;;;;16.38;3.90;;;26.50;46.30;;;;;;5030570;28;20207;-41
2021/12/23 03:06:22;;;;;;;13.82;3.67;;;26.50;46.30;;;;;;5034947;28;20196;-39
2021/12/23 03:08:54;;;;;;;13.68;3.78;;;26.50;46.40;;;;;;5022291;22;20612;-42
2021/12/23 03:11:27;;;;;;;17.35;3.72;;;26.50;46.40;;;;;;5008296;28;20288;-46
2021/12/23 03:13:58;;;;;;;17.25;4.25;;;26.50;46.60;;;;;;5000618;28;20303;-44
2021/12/23 03:16:32;;;;;;;12.10;3.70;;;26.50;46.60;;;;;;5004262;28;20209;-42
2021/12/23 03:19:02;;;;;;;18.38;3.60;;;26.50;46.70;;;;;;5002584;28;20848;-42
2021/12/23 03:21:35;;;;;;;15.73;3.78;;;26.50;46.70;;;;;;5001599;28;20280;-42
2021/12/23 03:24:06;;;;;;;14.55;3.90;;;26.50;46.70;;;;;;4986247;28;20223;-41
2021/12/23 03:26:36;;;;;;;14.55;4.22;;;26.50;46.70;;;;;;5005318;28;20280;-44
2021/12/23 03:29:08;;;;;;;16.75;3.97;;;26.50;46.70;;;;;;5007681;28;20201;-42
2021/12/23 03:31:39;;;;;;;11.60;4.10;;;26.50;46.70;;;;;;5005205;28;20208;-42
2021/12/23 03:34:09;;;;;;;12.80;3.58;;;26.40;46.70;;;;;;5005335;28;20229;-42
2021/12/23 03:36:42;;;;;;;14.30;4.05;;;26.40;46.60;;;;;;5005095;28;20648;-43
2021/12/23 03:39:12;;;;;;;13.27;3.75;;;26.40;46.60;;;;;;5004963;28;20281;-47
2021/12/23 03:41:43;;;;;;;13.90;3.63;;;26.40;46.60;;;;;;5006619;28;20197;-42
2021/12/23 03:44:13;;;;;;;12.80;3.30;;;26.40;46.60;;;;;;5008036;28;20276;-44
2021/12/23 03:46:44;;;;;;;11.82;3.40;;;26.40;46.70;;;;;;5000825;28;20207;-42
2021/12/23 03:49:14;;;;;;;13.52;3.70;;;26.40;46.70;;;;;;5002070;28;20733;-42
2021/12/23 03:51:47;;;;;;;10.15;2.95;;;26.40;46.80;;;;;;5000581;28;20284;-42
2021/12/23 03:54:17;;;;;;;11.65;3.42;;;26.40;46.80;;;;;;4996140;28;20234;-44
2021/12/23 03:56:48;;;;;;;11.70;3.33;;;26.30;46.70;;;;;;5001769;28;20648;-42
2021/12/23 03:59:18;;;;;;;9.13;3.30;;;26.40;46.80;;;;;;5007639;28;20283;-42
2021/12/23 04:01:49;;;;;;;11.23;2.78;;;26.40;46.70;;;;;;5004576;28;20739;-42
2021/12/23 04:04:19;;;;;;;9.10;2.83;;;26.40;46.70;;;;;;5005131;28;20645;-42
2021/12/23 04:09:22;;;;;;;8.55;2.80;;;26.40;46.60;;;;;;5002589;28;20228;-41
2021/12/23 04:11:52;;;;;;;10.70;3.38;;;26.40;46.60;;;;;;5000259;28;20292;-39
2021/12/23 04:14:23;;;;;;;8.48;2.88;;;26.40;46.50;;;;;;5006394;28;20316;-44
2021/12/23 04:16:53;;;;;;;8.88;2.65;;;26.40;46.50;;;;;;5006217;28;20280;-40
2021/12/23 04:19:28;;;;;;;7.40;2.72;;;26.40;46.40;;;;;;5005338;28;20276;-39
2021/12/23 04:21:58;;;;;;;7.10;2.85;;;26.40;46.40;;;;;;5004867;28;20204;-39
2021/12/23 04:24:30;;;;;;;6.70;2.40;;;26.40;46.40;;;;;;5004207;28;20208;-43
2021/12/23 04:27:01;;;;;;;7.47;3.05;;;26.40;46.30;;;;;;5002996;28;20189;-45
2021/12/23 04:29:31;;;;;;;8.38;3.05;;;26.40;46.20;;;;;;5005121;28;20615;-39
2021/12/23 04:32:02;;;;;;;11.00;2.60;;;26.40;46.20;;;;;;5006222;28;20645;-52
2021/12/23 04:34:32;;;;;;;7.38;2.75;;;26.40;46.10;;;;;;5002198;28;20311;-53
2021/12/23 04:37:03;;;;;;;7.40;2.70;;;26.40;46.10;;;;;;4997918;28;20312;-52
2021/12/23 04:39:35;;;;;;;7.40;2.70;;;26.40;46.10;;;;;;5004549;28;20205;-48
2021/12/23 04:42:06;;;;;;;6.30;2.75;;;26.40;46.10;;;;;;5005227;28;20284;-43
2021/12/23 04:44:39;;;;;;;6.97;2.55;;;26.40;46.00;;;;;;5005369;28;20287;-45
2021/12/23 04:47:10;;;;;;;6.38;2.20;;;26.40;45.90;;;;;;5003959;28;20317;-44
2021/12/23 04:49:40;;;;;;;7.20;2.58;;;26.40;45.90;;;;;;5007638;28;20228;-45
2021/12/23 04:52:11;;;;;;;8.88;2.28;;;26.40;45.90;;;;;;5005523;28;20564;-40
2021/12/23 04:54:43;;;;;;;8.05;2.70;;;26.40;45.90;;;;;;5002129;28;20304;-44
2021/12/23 04:57:14;;;;;;;6.57;2.38;;;26.40;45.80;;;;;;5003615;28;20223;-49
2021/12/23 04:59:44;;;;;;;5.90;2.40;;;26.40;45.80;;;;;;5002949;28;20280;-46
2021/12/23 05:02:15;;;;;;;6.50;2.55;;;26.40;45.80;;;;;;5001350;28;20709;-46
2021/12/23 05:05:26;;;;;;;5.82;2.45;;;26.40;45.80;;;;;;5005229;28;20630;-47
2021/12/23 05:07:56;;;;;;;6.35;2.53;;;26.30;45.70;;;;;;5006187;28;20317;-51
2021/12/23 05:10:29;;;;;;;5.43;2.33;;;26.30;45.60;;;;;;5002446;28;20284;-51
2021/12/23 05:12:59;;;;;;;5.57;2.22;;;26.30;45.60;;;;;;5001958;28;20233;-48
2021/12/23 05:15:30;;;;;;;6.95;2.47;;;26.30;45.60;;;;;;5000499;28;20736;-49
2021/12/23 05:21:45;;;;;;;6.00;2.10;;;26.30;45.70;;;;;;4944259;28;20201;-45
2021/12/23 05:24:15;;;;;;;5.45;1.83;;;26.30;45.60;;;;;;5002786;28;20279;-39
2021/12/23 05:26:47;;;;;;;7.38;2.50;;;26.20;45.60;;;;;;5002648;28;20306;-46
2021/12/23 05:29:18;;;;;;;6.80;2.60;;;26.20;45.60;;;;;;5005130;28;20295;-39
2021/12/23 05:31:48;;;;;;;5.60;2.33;;;26.20;45.60;;;;;;5004108;28;20236;-51
2021/12/23 05:34:19;;;;;;;5.25;1.90;;;26.20;45.60;;;;;;4998275;28;20664;-42
2021/12/23 05:36:49;;;;;;;5.63;2.00;;;26.20;45.60;;;;;;5000745;28;20287;-39
2021/12/23 05:39:20;;;;;;;7.15;2.40;;;26.20;45.60;;;;;;5002591;28;20276;-39
2021/12/23 05:41:52;;;;;;;4.93;1.85;;;26.20;45.60;;;;;;5002193;28;20215;-39
2021/12/23 05:44:23;;;;;;;4.72;2.10;;;26.20;45.60;;;;;;5003912;28;20297;-42
2021/12/23 05:46:53;;;;;;;4.80;2.13;;;26.20;46.10;;;;;;5002713;28;20308;-39
2021/12/23 05:49:24;;;;;;;5.93;2.17;;;26.20;45.60;;;;;;5006442;28;20288;-39
2021/12/23 05:51:54;;;;;;;5.18;1.90;;;26.20;45.50;;;;;;5002029;28;20211;-39
2021/12/23 05:54:24;;;;;;;5.18;2.22;;;26.20;45.50;;;;;;5000849;28;20233;-39
2021/12/23 05:57:01;;;;;;;5.82;2.03;;;26.20;45.50;;;;;;4997267;28;20872;-47
2021/12/23 05:59:32;;;;;;;5.30;1.80;;;26.20;45.60;;;;;;4999664;28;20192;-39
2021/12/23 06:02:04;;;;;;;6.20;2.10;;;26.10;45.40;;;;;;4999200;28;20300;-42
2021/12/23 06:04:35;;;;;;;5.32;1.63;;;26.10;45.40;;;;;;4996990;28;20257;-45
2021/12/23 06:07:06;;;;;;;4.95;2.00;;;26.10;45.40;;;;;;5003855;28;20201;-39
2021/12/23 06:09:37;;;;;;;5.90;2.20;;;26.10;45.40;;;;;;5002964;28;20328;-45
2021/12/23 06:12:10;;;;;;;7.18;2.42;;;26.10;45.40;;;;;;5000736;28;20248;-39
2021/12/23 06:14:40;;;;;;;5.57;1.92;;;26.10;45.40;;;;;;4997163;28;20311;-39
2021/12/23 06:17:11;;;;;;;6.40;2.15;;;26.10;45.30;;;;;;4991099;28;20225;-39
2021/12/23 06:19:41;;;;;;;4.80;1.80;;;26.10;45.40;;;;;;4998989;28;20280;-39
2021/12/23 06:22:13;;;;;;;5.85;2.03;;;26.10;45.30;;;;;;5007422;28;20279;-39
2021/12/23 06:24:45;;;;;;;5.10;1.92;;;26.10;45.30;;;;;;5008187;28;20280;-39
2021/12/23 06:27:18;;;;;;;5.13;1.90;;;26.10;45.30;;;;;;5003500;28;20677;-39
2021/12/23 06:29:49;;;;;;;7.47;2.05;;;26.10;45.30;;;;;;5001326;28;20284;-39
2021/12/23 06:32:20;;;;;;;5.97;2.08;;;26.10;45.30;;;;;;5001581;28;20296;-44
2021/12/23 06:34:50;;;;;;;5.20;1.90;;;26.10;45.30;;;;;;5001497;28;20220;-39
2021/12/23 06:37:21;;;;;;;5.95;1.95;;;26.10;45.30;;;;;;5001822;28;20316;-50
2021/12/23 06:39:51;;;;;;;5.35;1.95;;;26.10;45.30;;;;;;5000075;28;20292;-39
2021/12/23 06:42:23;;;;;;;4.00;1.60;;;26.10;45.30;;;;;;5003881;28;20280;-45
2021/12/23 06:44:54;;;;;;;6.53;1.95;;;26.10;45.30;;;;;;5002695;28;20307;-39
2021/12/23 06:47:24;;;;;;;4.97;2.00;;;26.10;45.30;;;;;;4996991;28;20304;-58
2021/12/23 06:49:55;;;;;;;6.68;1.88;;;26.00;45.30;;;;;;5004693;28;20607;-45
2021/12/23 06:52:25;;;;;;;7.05;2.13;;;26.00;45.30;;;;;;4999462;28;20300;-40
2021/12/23 06:54:56;;;;;;;6.00;1.98;;;26.00;45.30;;;;;;4995846;28;20252;-49
2021/12/23 06:57:29;;;;;;;6.30;2.13;;;26.00;45.30;;;;;;5003660;28;20692;-49
2021/12/23 07:00:00;;;;;;;5.32;1.70;;;26.00;45.30;;;;;;5000296;28;20548;-41
2021/12/23 07:02:31;;;;;;;5.70;1.80;;;26.00;45.30;;;;;;5004538;28;20232;-39
2021/12/23 07:05:01;;;;;;;7.38;1.88;;;26.00;45.40;;;;;;5002999;28;20224;-39
2021/12/23 07:07:40;;;;;;;4.53;1.70;;;25.90;45.30;;;;;;4998200;28;20224;-39
2021/12/23 07:10:12;;;;;;;4.32;1.35;;;25.90;45.40;;;;;;5000953;28;20236;-42
2021/12/23 07:12:45;;;;;;;4.47;1.70;;;25.90;45.30;;;;;;5004047;28;20227;-51
2021/12/23 07:15:15;;;;;;;4.03;1.70;;;25.90;45.40;;;;;;5002921;28;20221;-39
2021/12/23 07:17:46;;;;;;;6.88;1.90;;;25.90;45.30;;;;;;4992859;28;20316;-39
2021/12/23 07:20:16;;;;;;;4.75;1.80;;;25.90;45.40;;;;;;5004593;28;20276;-43
2021/12/23 07:22:47;;;;;;;4.53;1.85;;;25.80;45.40;;;;;;5000840;28;20284;-39
2021/12/23 07:25:18;;;;;;;8.52;2.13;;;25.80;45.40;;;;;;4997006;28;20723;-39
2021/12/23 07:27:50;;;;;;;4.78;2.10;;;25.80;45.40;;;;;;4996539;28;20308;-45
2021/12/23 07:30:22;;;;;;;5.78;1.75;;;25.80;45.40;;;;;;5003151;28;20288;-39
2021/12/23 07:32:54;;;;;;;6.05;1.90;;;25.80;45.40;;;;;;5006791;28;20635;-41
2021/12/23 07:35:24;;;;;;;4.10;2.03;;;25.70;45.40;;;;;;4998978;28;20580;-40
2021/12/23 07:37:57;;;;;;;5.15;1.80;;;25.70;45.40;;;;;;4998166;28;20217;-55
2021/12/23 07:40:27;;;;;;;4.32;1.83;;;25.70;45.50;;;;;;5002459;28;20197;-49
2021/12/23 07:43:09;;;;;;;4.63;1.70;;;25.70;45.50;;;;;;5004197;28;20236;-39
2021/12/23 07:45:41;;;;;;;3.03;1.40;;;25.70;45.50;;;;;;5001308;28;20224;-42
2021/12/23 07:48:11;;;;;;;4.13;1.80;;;25.60;45.50;;;;;;4999488;28;20744;-39
2021/12/23 07:50:44;;;;;;;4.35;1.60;;;25.60;45.50;;;;;;4997971;28;20300;-48
2021/12/23 07:53:14;;;;;;;3.47;1.70;;;25.60;45.50;;;;;;5002100;28;20300;-40
2021/12/23 07:55:45;;;;;;;5.75;1.75;;;25.50;45.50;;;;;;4999590;28;20334;-45
2021/12/23 07:58:18;;;;;;;3.13;1.63;;;25.50;45.60;;;;;;4996311;28;20231;-40
2021/12/23 08:00:48;;;;;;;4.53;1.83;;;25.50;45.60;;;;;;5002312;28;20294;-39
2021/12/23 08:03:19;;;;;;;4.05;1.50;;;25.50;45.60;;;;;;5003508;28;20207;-41
2021/12/23 08:05:49;;;;;;;4.28;1.42;;;25.50;45.60;;;;;;5001347;28;20292;-39
2021/12/23 08:08:20;;;;;;;8.02;2.15;;;25.50;45.60;;;;;;4998013;28;20228;-39
2021/12/23 08:10:50;;;;;;;4.18;1.65;;;25.50;45.60;;;;;;5002805;28;20224;-39
2021/12/23 08:13:23;;;;;;;4.90;1.60;;;25.40;45.60;;;;;;5002838;28;20281;-39
2021/12/23 08:15:53;;;;;;;4.13;1.63;;;25.40;45.70;;;;;;5003824;28;20312;-39
2021/12/23 08:18:24;;;;;;;5.93;2.10;;;25.40;45.70;;;;;;4999612;28;20722;-39
2021/12/23 08:20:54;;;;;;;4.68;1.70;;;25.40;45.70;;;;;;5000726;28;20328;-39
2021/12/23 08:23:25;;;;;;;3.90;1.75;;;25.40;45.70;;;;;;5005039;28;20275;-48
2021/12/23 08:25:55;;;;;;;4.65;1.63;;;25.30;45.70;;;;;;5005874;28;20289;-40
2021/12/23 08:28:28;;;;;;;3.50;1.40;;;25.30;45.70;;;;;;5005435;28;20223;-39
2021/12/23 08:31:00;;;;;;;3.92;1.63;;;25.30;45.70;;;;;;5002607;28;20197;-42
2021/12/23 08:33:30;;;;;;;2.60;1.40;;;25.30;45.70;;;;;;5004911;28;20989;-40
2021/12/23 08:36:02;;;;;;;2.65;1.27;;;25.30;45.80;;;;;;5002079;28;20348;-39
2021/12/23 08:38:32;;;;;;;3.88;1.73;;;25.30;45.70;;;;;;5007269;28;20231;-43
2021/12/23 08:41:03;;;;;;;3.55;1.27;;;25.30;45.80;;;;;;5007260;28;20283;-39
2021/12/23 08:43:35;;;;;;;4.43;1.42;;;25.20;45.80;;;;;;5005550;28;20297;-40
2021/12/23 08:46:06;;;;;;;2.50;1.38;;;25.30;45.80;;;;;;5004877;28;20287;-39
2021/12/23 08:48:36;;;;;;;2.65;1.17;;;25.20;45.80;;;;;;5005509;28;20295;-39
2021/12/23 08:51:07;;;;;;;2.88;1.50;;;25.20;45.80;;;;;;5004213;28;20291;-40
2021/12/23 08:53:37;;;;;;;3.47;1.38;;;25.20;45.80;;;;;;5005754;28;20239;-39
2021/12/23 08:56:08;;;;;;;3.85;1.50;;;25.10;45.70;;;;;;5007038;28;20308;-44
2021/12/23 08:58:42;;;;;;;4.03;1.60;;;25.20;45.80;;;;;;5005223;28;20602;-40
2021/12/23 09:01:13;;;;;;;4.43;1.67;;;25.10;45.80;;;;;;5000943;28;20292;-42
2021/12/23 09:03:43;;;;;;;3.72;1.27;;;25.10;45.80;;;;;;5000313;28;20212;-39
2021/12/23 09:06:14;;;;;;;3.45;1.50;;;25.10;45.80;;;;;;4998081;28;20300;-44
2021/12/23 09:08:44;;;;;;;2.60;1.30;;;25.10;45.80;;;;;;5001195;28;20308;-44
2021/12/23 09:11:14;;;;;;;3.05;1.40;;;25.10;45.80;;;;;;4999536;28;20226;-40
2021/12/23 09:13:47;;;;;;;2.53;1.30;;;25.10;45.80;;;;;;4997986;28;20280;-45
2021/12/23 09:16:17;;;;;;;5.22;1.48;;;25.00;45.80;;;;;;5005359;28;20231;-39
2021/12/23 09:18:48;;;;;;;6.30;1.88;;;25.00;45.90;;;;;;5003277;28;20231;-39
2021/12/23 09:21:19;;;;;;;4.00;1.50;;;24.90;45.90;;;;;;4998409;28;20304;-38
2021/12/23 09:23:49;;;;;;;2.42;1.10;;;24.90;45.80;;;;;;4998075;28;20231;-39
2021/12/23 09:26:20;;;;;;;3.17;1.25;;;24.90;45.80;;;;;;5004483;28;20635;-39
2021/12/23 09:29:02;;;;;;;3.67;1.25;;;24.90;45.90;;;;;;5006833;28;20228;-40
2021/12/23 09:34:19;;;;;;;3.38;1.45;;;24.90;45.80;;;;;;5005669;28;20224;-61
2021/12/23 09:36:50;;;;;;;3.35;1.33;;;24.80;45.80;;;;;;5002248;28;20757;-47
2021/12/23 09:39:21;;;;;;;3.15;1.55;;;24.80;45.80;;;;;;4999921;28;20308;-51
2021/12/23 09:41:52;;;;;;;3.72;1.30;;;24.80;45.80;;;;;;5004646;28;20236;-48
2021/12/23 09:44:24;;;;;;;3.20;1.33;;;24.70;45.80;;;;;;5004069;28;20287;-44
2021/12/23 09:46:57;;;;;;;2.55;1.45;;;24.70;45.90;;;;;;5005777;28;20748;-39
2021/12/23 09:49:29;;;;;;;2.65;1.42;;;24.70;45.90;;;;;;5003696;28;20279;-39
2021/12/23 09:52:04;;;;;;;2.40;1.20;;;24.70;45.90;;;;;;5003145;28;20197;-39
2021/12/23 09:54:37;;;;;;;4.70;1.30;;;24.70;46.60;;;;;;5007210;28;20204;-44
2021/12/23 09:57:08;;;;;;;3.75;1.20;;;24.60;46.00;;;;;;5009649;28;20296;-39
2021/12/23 09:59:41;;;;;;;2.35;1.25;;;24.60;46.00;;;;;;5010183;28;20215;-39
2021/12/23 10:02:12;;;;;;;3.88;1.52;;;24.60;46.00;;;;;;5008189;28;20256;-39
2021/12/23 10:04:43;;;;;;;3.30;1.40;;;24.60;46.10;;;;;;5008957;28;20228;-39
2021/12/23 10:07:14;;;;;;;4.22;1.60;;;24.50;46.00;;;;;;5007263;28;20279;-48
2021/12/23 10:09:51;;;;;;;2.17;1.33;;;24.50;46.60;;;;;;5006867;28;20692;-39
2021/12/23 10:38:23;;;;;;;3.85;1.35;;;24.20;46.10;;;;;;4945634;29;20293;-46
2021/12/23 10:40:55;;;;;;;3.28;1.38;;;24.20;46.10;;;;;;4995536;28;20207;-39
2021/12/23 10:43:29;;;;;;;2.78;1.20;;;24.20;46.10;;;;;;5009650;28;20228;-41
2021/12/23 10:46:02;;;;;;;2.70;1.20;;;24.20;46.20;;;;;;5006106;28;20226;-40
2021/12/23 10:48:45;;;;;;;2.78;1.30;;;24.10;46.10;;;;;;5005889;28;20737;-40
2021/12/23 10:51:19;;;;;;;2.53;1.27;;;24.10;46.10;;;;;;5009077;28;20255;-44
2021/12/23 10:54:16;;;;;;;2.70;1.30;;;24.00;46.10;;;;;;5008445;28;20281;-44
2021/12/23 10:59:33;;;;;;;2.47;1.33;;;24.00;46.20;;;;;;5008981;28;20212;-46
2021/12/23 11:02:10;;;;;;;3.60;1.63;;;24.00;46.20;;;;;;5010886;28;20296;-52
2021/12/23 11:05:09;;;;;;;2.45;1.23;;;24.00;46.20;;;;;;5007350;28;20609;-53
2021/12/23 11:07:55;;;;;;;2.38;1.23;;;23.90;46.20;;;;;;5006122;28;20306;-43
2021/12/23 11:10:53;;;;;;;2.22;1.10;;;23.90;46.20;;;;;;5010078;28;20200;-50
2021/12/23 11:39:10;;;;;;;1.77;1.30;;;23.70;46.30;;;;;;4988051;28;20232;-58
2021/12/23 11:41:50;;;;;;;1.77;0.95;;;23.60;46.40;;;;;;5007411;28;20208;-43
2021/12/23 11:44:20;;;;;;;3.42;1.20;;;23.60;46.40;;;;;;5006692;28;20196;-57
2021/12/23 11:46:54;;;;;;;3.38;1.40;;;23.60;46.40;;;;;;5006121;28;20299;-62
2021/12/23 11:49:25;;;;;;;2.40;1.27;;;23.60;46.40;;;;;;5007787;28;20252;-43
2021/12/23 11:51:55;;;;;;;2.47;1.13;;;23.50;46.50;;;;;;5004225;28;20228;-45
2021/12/23 11:54:33;;;;;;;2.00;0.95;;;23.50;46.50;;;;;;5004795;28;20309;-39
2021/12/23 11:57:08;;;;;;;4.15;1.27;;;23.50;46.50;;;;;;5007247;28;20282;-41
2021/12/23 11:59:40;;;;;;;2.65;1.10;;;23.40;46.40;;;;;;5006462;28;20299;-44
2021/12/23 12:02:17;;;;;;;1.52;1.02;;;23.40;46.50;;;;;;5005950;28;20271;-42
2021/12/23 12:04:47;;;;;;;1.65;1.10;;;23.40;46.40;;;;;;5007454;28;20283;-39
2021/12/23 12:07:20;;;;;;;3.03;1.25;;;23.40;46.40;;;;;;5005795;28;20287;-39
2021/12/23 12:10:03;;;;;;;2.17;1.15;;;23.40;46.60;;;;;;5004447;28;20276;-43
2021/12/23 12:12:34;;;;;;;1.88;1.15;;;23.40;46.50;;;;;;5007006;28;20284;-46
2021/12/23 12:15:06;;;;;;;2.30;1.20;;;23.30;46.40;;;;;;5005428;28;20232;-44
2021/12/23 12:17:41;;;;;;;1.95;1.15;;;23.30;46.40;;;;;;5006212;28;20751;-50
2021/12/23 12:20:36;;;;;;;2.22;0.98;;;23.30;46.50;;;;;;4987506;28;20289;-51
2021/12/23 12:23:11;;;;;;;2.22;1.17;;;23.30;46.50;;;;;;4986738;28;20203;-44
2021/12/23 12:25:58;;;;;;;2.92;1.27;;;23.30;46.50;;;;;;4988095;28;20255;-52
2021/12/23 12:28:46;;;;;;;3.13;1.40;;;23.20;46.50;;;;;;4989890;28;20715;-50
2021/12/23 12:31:20;;;;;;;2.25;0.90;;;23.20;46.50;;;;;;4981292;28;20293;-55
2021/12/23 12:34:06;;;;;;;2.20;1.10;;;23.20;46.60;;;;;;4980136;28;20229;-49
2021/12/23 12:36:42;;;;;;;2.15;0.90;;;23.20;46.60;;;;;;4987806;28;20229;-49
2021/12/23 12:39:24;;;;;;;2.17;1.00;;;23.10;46.60;;;;;;4988886;28;20340;-49
2021/12/23 12:42:03;;;;;;;1.88;0.80;;;23.10;46.70;;;;;;4989511;28;20215;-45
2021/12/23 12:44:53;;;;;;;1.80;1.10;;;23.10;46.80;;;;;;5000684;28;20198;-55
2021/12/23 12:47:32;;;;;;;2.75;0.95;;;23.10;46.80;;;;;;4988520;28;20201;-54
2021/12/23 12:50:13;;;;;;;1.42;0.80;;;23.00;46.80;;;;;;4988256;28;20288;-52
2021/12/23 12:52:45;;;;;;;1.25;0.90;;;23.00;46.80;;;;;;4974228;28;20655;-45
2021/12/23 12:55:18;;;;;;;3.58;1.30;;;23.00;46.80;;;;;;4988168;28;20202;-42
2021/12/23 12:57:53;;;;;;;2.25;1.20;;;23.00;46.90;;;;;;4989275;28;20271;-57
2021/12/23 13:00:32;;;;;;;2.60;1.25;;;22.90;46.80;;;;;;4988358;28;20288;-45
2021/12/23 13:03:07;;;;;;;1.55;1.13;;;22.90;46.80;;;;;;4980791;28;20207;-55
2021/12/23 13:05:40;;;;;;;1.55;0.95;;;22.90;46.80;;;;;;4985448;28;20667;-55
2021/12/23 13:08:28;;;;;;;3.08;1.25;;;22.90;46.80;;;;;;4987206;28;20283;-49
2021/12/23 13:11:02;;;;;;;2.13;1.10;;;22.90;46.80;;;;;;4988760;28;20255;-45
2021/12/23 13:13:42;;;;;;;1.92;1.00;;;22.90;46.80;;;;;;4982942;28;20285;-43
2021/12/23 13:16:17;;;;;;;2.75;1.10;;;22.80;46.80;;;;;;4979635;28;20217;-42
2021/12/23 13:18:47;;;;;;;1.80;1.00;;;22.80;46.80;;;;;;4988388;28;20232;-43
2021/12/23 13:21:24;;;;;;;1.35;1.00;;;22.80;46.80;;;;;;4986886;28;20226;-41
2021/12/23 13:24:03;;;;;;;2.30;1.30;;;22.80;46.80;;;;;;4986880;28;20267;-46
2021/12/23 13:26:33;;;;;;;2.55;1.00;;;22.70;46.80;;;;;;4986589;28;20194;-42
2021/12/23 13:29:07;;;;;;;1.58;0.93;;;22.70;46.80;;;;;;4986941;28;20379;-41
2021/12/23 13:31:40;;;;;;;2.28;1.17;;;22.70;46.80;;;;;;4987230;28;20284;-54
2021/12/23 13:34:12;;;;;;;1.83;0.98;;;22.70;46.90;;;;;;4971875;28;20678;-46
2021/12/23 13:36:45;;;;;;;1.92;1.10;;;22.70;46.90;;;;;;4988538;28;20221;-49
2021/12/23 13:39:17;;;;;;;2.38;1.17;;;22.70;46.90;;;;;;4972110;28;20222;-48
2021/12/23 13:41:50;;;;;;;2.65;1.27;;;22.70;47.00;;;;;;4988587;28;20197;-48
2021/12/23 13:44:27;;;;;;;1.80;0.95;;;22.70;47.00;;;;;;4986525;28;20297;-53
2021/12/23 13:47:03;;;;;;;1.67;0.88;;;22.60;47.00;;;;;;4986425;28;20748;-49
2021/12/23 13:49:41;;;;;;;1.60;0.90;;;22.60;47.00;;;;;;4986979;28;20305;-48
2021/12/23 13:52:13;;;;;;;1.42;0.82;;;22.60;46.90;;;;;;4986613;28;20237;-50
2021/12/23 13:54:44;;;;;;;2.58;1.10;;;22.50;46.90;;;;;;4976479;28;20321;-44
2021/12/23 13:57:16;;;;;;;2.13;1.13;;;22.50;46.90;;;;;;4982042;28;20785;-56
2021/12/23 13:59:49;;;;;;;1.60;1.00;;;22.50;46.80;;;;;;4979501;28;20202;-46
2021/12/23 14:02:21;;;;;;;2.30;1.20;;;22.50;46.90;;;;;;4973224;28;20315;-52
2021/12/23 14:04:53;;;;;;;2.70;1.27;;;22.50;46.90;;;;;;4978343;28;20288;-48
2021/12/23 14:07:29;;;;;;;2.47;0.85;;;22.50;46.90;;;;;;4986593;28;20289;-54
2021/12/23 14:10:02;;;;;;;1.70;1.15;;;22.50;46.50;;;;;;4985057;28;20629;-45
2021/12/23 14:12:51;;;;;;;3.08;0.90;;;22.50;46.90;;;;;;4974678;28;20229;-53
2021/12/23 14:15:26;;;;;;;2.60;0.95;;;22.40;46.90;;;;;;4986761;28;20202;-53
2021/12/23 14:18:01;;;;;;;1.27;0.90;;;22.40;47.00;;;;;;4986720;28;20228;-52
2021/12/23 14:23:23;;;;;;;1.90;1.08;;;22.30;47.00;;;;;;4986900;28;20259;-49
2021/12/23 14:26:02;;;;;;;1.88;1.13;;;22.30;47.10;;;;;;4986692;28;20756;-52
2021/12/23 14:28:41;;;;;;;1.30;0.73;;;22.40;47.10;;;;;;4986573;28;20314;-53